sensor_id;sensor_type;location;lat;lon;timestamp;temperature;humidity
1476;DHT22;730;48.870;12.542;2023-12-07T00:00:41;3.10;1.00
1476;DHT22;730;48.870;12.542;2023-12-07T00:03:07;3.10;1.00
1476;DHT22;730;48.870;12.542;2023-12-07T00:05:33;3.10;1.00
1476;DHT22;730;48.870;12.542;2023-12-07T00:07:59;3.20;1.00
1476;DHT22;730;48.870;12.542;2023-12-07T00:10:25;3.20;1.00
1476;DHT22;730;48.870;12.542;2023-12-07T00:12:51;3.20;1.00
1476;DHT22;730;48.870;12.542;2023-12-07T00:15:17;3.20;1.00
1476;DHT22;730;48.870;12.542;2023-12-07T00:17:43;3.20;1.00
1476;DHT22;730;48.870;12.542;2023-12-07T00:20:10;3.20;1.00
1476;DHT22;730;48.870;12.542;2023-12-07T00:22:36;3.20;1.00
1476;DHT22;730;48.870;12.542;2023-12-07T00:25:03;3.20;1.00
1476;DHT22;730;48.870;12.542;2023-12-07T00:27:29;3.10;1.00
1476;DHT22;730;48.870;12.542;2023-12-07T00:29:55;3.10;1.00
1476;DHT22;730;48.870;12.542;2023-12-07T00:32:22;3.00;1.00
1476;DHT22;730;48.870;12.542;2023-12-07T00:34:48;3.00;1.00
1476;DHT22;730;48.870;12.542;2023-12-07T00:37:15;3.00;1.00
1476;DHT22;730;48.870;12.542;2023-12-07T00:39:41;3.00;1.00
1476;DHT22;730;48.870;12.542;2023-12-07T00:42:07;3.00;1.00
1476;DHT22;730;48.870;12.542;2023-12-07T00:44:33;2.90;1.00
1476;DHT22;730;48.870;12.542;2023-12-07T00:46:59;2.90;1.00
1476;DHT22;730;48.870;12.542;2023-12-07T00:49:26;2.90;1.00
1476;DHT22;730;48.870;12.542;2023-12-07T00:51:52;2.90;1.00
1476;DHT22;730;48.870;12.542;2023-12-07T00:54:18;2.90;1.00
1476;DHT22;730;48.870;12.542;2023-12-07T00:56:44;2.90;1.00
1476;DHT22;730;48.870;12.542;2023-12-07T00:59:10;2.90;1.00
1476;DHT22;730;48.870;12.542;2023-12-07T01:01:36;2.90;1.00
1476;DHT22;730;48.870;12.542;2023-12-07T01:04:04;2.90;1.00
1476;DHT22;730;48.870;12.542;2023-12-07T01:06:31;2.80;1.00
1476;DHT22;730;48.870;12.542;2023-12-07T01:08:57;2.80;1.00
1476;DHT22;730;48.870;12.542;2023-12-07T01:11:23;2.70;1.00
1476;DHT22;730;48.870;12.542;2023-12-07T01:13:49;2.70;1.00
1476;DHT22;730;48.870;12.542;2023-12-07T01:16:15;2.70;1.00
1476;DHT22;730;48.870;12.542;2023-12-07T01:18:41;2.70;1.00
1476;DHT22;730;48.870;12.542;2023-12-07T01:21:07;2.70;1.00
1476;DHT22;730;48.870;12.542;2023-12-07T01:23:33;2.70;1.00
1476;DHT22;730;48.870;12.542;2023-12-07T01:25:59;2.70;1.00
1476;DHT22;730;48.870;12.542;2023-12-07T01:28:28;2.70;1.00
1476;DHT22;730;48.870;12.542;2023-12-07T01:30:54;2.70;1.00
1476;DHT22;730;48.870;12.542;2023-12-07T01:33:20;2.70;1.00
1476;DHT22;730;48.870;12.542;2023-12-07T01:35:47;2.70;1.00
1476;DHT22;730;48.870;12.542;2023-12-07T01:38:13;2.70;1.00
1476;DHT22;730;48.870;12.542;2023-12-07T01:40:39;2.70;1.00
1476;DHT22;730;48.870;12.542;2023-12-07T01:43:05;2.70;1.00
1476;DHT22;730;48.870;12.542;2023-12-07T01:45:32;2.80;1.00
1476;DHT22;730;48.870;12.542;2023-12-07T01:47:58;2.80;1.00
1476;DHT22;730;48.870;12.542;2023-12-07T01:50:25;2.90;1.00
1476;DHT22;730;48.870;12.542;2023-12-07T01:53:01;2.90;1.00
1476;DHT22;730;48.870;12.542;2023-12-07T01:55:29;3.00;1.00
1476;DHT22;730;48.870;12.542;2023-12-07T01:57:56;3.00;1.00
1476;DHT22;730;48.870;12.542;2023-12-07T02:00:22;3.00;1.00
1476;DHT22;730;48.870;12.542;2023-12-07T02:02:50;3.00;1.00
1476;DHT22;730;48.870;12.542;2023-12-07T02:05:16;3.00;1.00
1476;DHT22;730;48.870;12.542;2023-12-07T02:07:42;3.10;1.00
1476;DHT22;730;48.870;12.542;2023-12-07T02:10:10;3.00;1.00
1476;DHT22;730;48.870;12.542;2023-12-07T02:12:36;3.10;1.00
1476;DHT22;730;48.870;12.542;2023-12-07T02:15:03;3.00;1.00
1476;DHT22;730;48.870;12.542;2023-12-07T02:22:39;3.10;1.00
1476;DHT22;730;48.870;12.542;2023-12-07T02:25:06;3.00;1.00
1476;DHT22;730;48.870;12.542;2023-12-07T02:27:41;3.10;1.00
1476;DHT22;730;48.870;12.542;2023-12-07T02:30:09;3.10;1.00
1476;DHT22;730;48.870;12.542;2023-12-07T02:32:40;3.10;1.00
1476;DHT22;730;48.870;12.542;2023-12-07T02:35:08;3.00;1.00
1476;DHT22;730;48.870;12.542;2023-12-07T02:37:38;3.00;1.00
1476;DHT22;730;48.870;12.542;2023-12-07T02:40:07;3.00;1.00
1476;DHT22;730;48.870;12.542;2023-12-07T02:42:38;3.00;1.00
1476;DHT22;730;48.870;12.542;2023-12-07T02:45:07;3.00;1.00
1476;DHT22;730;48.870;12.542;2023-12-07T02:47:34;3.00;1.00
1476;DHT22;730;48.870;12.542;2023-12-07T02:50:00;3.10;1.00
1476;DHT22;730;48.870;12.542;2023-12-07T02:52:27;3.00;1.00
1476;DHT22;730;48.870;12.542;2023-12-07T02:54:53;3.00;1.00
1476;DHT22;730;48.870;12.542;2023-12-07T02:57:19;3.00;1.00
1476;DHT22;730;48.870;12.542;2023-12-07T02:59:45;3.10;1.00
1476;DHT22;730;48.870;12.542;2023-12-07T03:02:11;3.00;1.00
1476;DHT22;730;48.870;12.542;2023-12-07T03:04:37;3.00;1.00
1476;DHT22;730;48.870;12.542;2023-12-07T03:07:03;3.10;1.00
1476;DHT22;730;48.870;12.542;2023-12-07T03:09:29;3.00;1.00
1476;DHT22;730;48.870;12.542;2023-12-07T03:11:55;3.00;1.00
1476;DHT22;730;48.870;12.542;2023-12-07T03:14:21;2.90;1.00
1476;DHT22;730;48.870;12.542;2023-12-07T03:16:47;2.90;1.00
1476;DHT22;730;48.870;12.542;2023-12-07T03:19:13;2.90;1.00
1476;DHT22;730;48.870;12.542;2023-12-07T03:21:40;2.90;1.00
1476;DHT22;730;48.870;12.542;2023-12-07T03:24:07;2.80;1.00
1476;DHT22;730;48.870;12.542;2023-12-07T03:26:34;2.80;1.00
1476;DHT22;730;48.870;12.542;2023-12-07T03:29:01;2.80;1.00
1476;DHT22;730;48.870;12.542;2023-12-07T03:31:28;2.80;1.00
1476;DHT22;730;48.870;12.542;2023-12-07T03:33:55;2.80;1.00
1476;DHT22;730;48.870;12.542;2023-12-07T03:36:21;2.80;1.00
1476;DHT22;730;48.870;12.542;2023-12-07T03:38:48;2.80;1.00
1476;DHT22;730;48.870;12.542;2023-12-07T03:41:15;2.80;1.00
1476;DHT22;730;48.870;12.542;2023-12-07T03:43:41;2.70;1.00
1476;DHT22;730;48.870;12.542;2023-12-07T03:46:07;2.70;1.00
1476;DHT22;730;48.870;12.542;2023-12-07T03:48:34;2.70;1.00
1476;DHT22;730;48.870;12.542;2023-12-07T03:51:00;2.70;1.00
1476;DHT22;730;48.870;12.542;2023-12-07T03:53:27;2.70;1.00
1476;DHT22;730;48.870;12.542;2023-12-07T03:55:55;2.80;1.00
1476;DHT22;730;48.870;12.542;2023-12-07T03:58:21;2.70;1.00
1476;DHT22;730;48.870;12.542;2023-12-07T04:00:47;2.80;1.00
1476;DHT22;730;48.870;12.542;2023-12-07T04:03:13;2.70;1.00
1476;DHT22;730;48.870;12.542;2023-12-07T04:05:39;2.70;1.00
1476;DHT22;730;48.870;12.542;2023-12-07T04:08:05;2.70;1.00
1476;DHT22;730;48.870;12.542;2023-12-07T04:10:31;2.70;1.00
1476;DHT22;730;48.870;12.542;2023-12-07T04:12:57;2.70;1.00
1476;DHT22;730;48.870;12.542;2023-12-07T04:15:23;2.70;1.00
1476;DHT22;730;48.870;12.542;2023-12-07T04:17:50;2.70;1.00
1476;DHT22;730;48.870;12.542;2023-12-07T04:20:16;2.70;1.00
1476;DHT22;730;48.870;12.542;2023-12-07T04:22:43;2.70;1.00
1476;DHT22;730;48.870;12.542;2023-12-07T04:25:11;2.70;1.00
1476;DHT22;730;48.870;12.542;2023-12-07T04:27:37;2.60;1.00
1476;DHT22;730;48.870;12.542;2023-12-07T04:30:03;2.60;1.00
1476;DHT22;730;48.870;12.542;2023-12-07T04:32:29;2.60;1.00
1476;DHT22;730;48.870;12.542;2023-12-07T04:34:55;2.60;1.00
1476;DHT22;730;48.870;12.542;2023-12-07T04:37:21;2.60;1.00
1476;DHT22;730;48.870;12.542;2023-12-07T04:39:47;2.60;1.00
1476;DHT22;730;48.870;12.542;2023-12-07T04:42:13;2.70;1.00
1476;DHT22;730;48.870;12.542;2023-12-07T04:44:40;2.70;1.00
1476;DHT22;730;48.870;12.542;2023-12-07T04:47:06;2.70;1.00
1476;DHT22;730;48.870;12.542;2023-12-07T04:49:32;2.70;1.00
1476;DHT22;730;48.870;12.542;2023-12-07T04:51:58;2.70;1.00
1476;DHT22;730;48.870;12.542;2023-12-07T04:54:24;2.70;1.00
1476;DHT22;730;48.870;12.542;2023-12-07T04:56:50;2.70;1.00
1476;DHT22;730;48.870;12.542;2023-12-07T04:59:16;2.70;1.00
1476;DHT22;730;48.870;12.542;2023-12-07T05:01:42;2.70;1.00
1476;DHT22;730;48.870;12.542;2023-12-07T05:04:08;2.80;1.00
1476;DHT22;730;48.870;12.542;2023-12-07T05:06:34;2.80;1.00
1476;DHT22;730;48.870;12.542;2023-12-07T05:09:01;2.80;1.00
1476;DHT22;730;48.870;12.542;2023-12-07T05:11:27;2.80;1.00
1476;DHT22;730;48.870;12.542;2023-12-07T05:13:53;2.80;1.00
1476;DHT22;730;48.870;12.542;2023-12-07T05:16:19;2.80;1.00
1476;DHT22;730;48.870;12.542;2023-12-07T05:18:45;2.90;1.00
1476;DHT22;730;48.870;12.542;2023-12-07T05:21:11;2.80;1.00
1476;DHT22;730;48.870;12.542;2023-12-07T05:23:37;2.90;1.00
1476;DHT22;730;48.870;12.542;2023-12-07T05:26:04;2.90;1.00
1476;DHT22;730;48.870;12.542;2023-12-07T05:28:30;2.90;1.00
1476;DHT22;730;48.870;12.542;2023-12-07T05:30:56;2.90;1.00
1476;DHT22;730;48.870;12.542;2023-12-07T05:33:22;2.90;1.00
1476;DHT22;730;48.870;12.542;2023-12-07T05:35:49;2.90;1.00
1476;DHT22;730;48.870;12.542;2023-12-07T05:38:15;2.90;1.00
1476;DHT22;730;48.870;12.542;2023-12-07T05:40:41;2.90;1.00
1476;DHT22;730;48.870;12.542;2023-12-07T05:43:07;2.90;1.00
1476;DHT22;730;48.870;12.542;2023-12-07T05:45:33;3.00;1.00
1476;DHT22;730;48.870;12.542;2023-12-07T05:47:59;2.90;1.00
1476;DHT22;730;48.870;12.542;2023-12-07T05:50:25;2.90;1.00
1476;DHT22;730;48.870;12.542;2023-12-07T05:52:52;2.90;1.00
1476;DHT22;730;48.870;12.542;2023-12-07T05:55:18;2.90;1.00
1476;DHT22;730;48.870;12.542;2023-12-07T05:57:45;2.90;1.00
1476;DHT22;730;48.870;12.542;2023-12-07T06:00:12;2.90;1.00
1476;DHT22;730;48.870;12.542;2023-12-07T06:02:38;2.90;1.00
1476;DHT22;730;48.870;12.542;2023-12-07T06:05:05;2.90;1.00
1476;DHT22;730;48.870;12.542;2023-12-07T06:07:31;2.90;1.00
1476;DHT22;730;48.870;12.542;2023-12-07T06:09:57;2.80;1.00
1476;DHT22;730;48.870;12.542;2023-12-07T06:12:23;2.80;1.00
1476;DHT22;730;48.870;12.542;2023-12-07T06:14:49;2.80;1.00
1476;DHT22;730;48.870;12.542;2023-12-07T06:17:16;2.80;1.00
1476;DHT22;730;48.870;12.542;2023-12-07T06:19:42;2.80;1.00
1476;DHT22;730;48.870;12.542;2023-12-07T06:22:08;2.80;1.00
1476;DHT22;730;48.870;12.542;2023-12-07T06:24:34;2.80;1.00
1476;DHT22;730;48.870;12.542;2023-12-07T06:27:03;2.80;1.00
1476;DHT22;730;48.870;12.542;2023-12-07T06:29:29;2.80;1.00
1476;DHT22;730;48.870;12.542;2023-12-07T06:31:55;2.80;1.00
1476;DHT22;730;48.870;12.542;2023-12-07T06:34:21;2.80;1.00
1476;DHT22;730;48.870;12.542;2023-12-07T06:36:47;2.90;1.00
1476;DHT22;730;48.870;12.542;2023-12-07T06:39:13;2.90;1.00
1476;DHT22;730;48.870;12.542;2023-12-07T06:41:40;2.90;1.00
1476;DHT22;730;48.870;12.542;2023-12-07T06:44:06;2.90;1.00
1476;DHT22;730;48.870;12.542;2023-12-07T06:46:32;3.00;1.00
1476;DHT22;730;48.870;12.542;2023-12-07T06:48:58;3.00;1.00
1476;DHT22;730;48.870;12.542;2023-12-07T06:51:25;3.10;1.00
1476;DHT22;730;48.870;12.542;2023-12-07T06:53:52;3.10;1.00
1476;DHT22;730;48.870;12.542;2023-12-07T06:56:18;3.10;1.00
1476;DHT22;730;48.870;12.542;2023-12-07T06:58:44;3.10;1.00
1476;DHT22;730;48.870;12.542;2023-12-07T07:01:10;3.10;1.00
1476;DHT22;730;48.870;12.542;2023-12-07T07:03:36;3.20;1.00
1476;DHT22;730;48.870;12.542;2023-12-07T07:06:05;3.20;1.00
1476;DHT22;730;48.870;12.542;2023-12-07T07:08:31;3.20;1.00
1476;DHT22;730;48.870;12.542;2023-12-07T07:10:57;3.20;1.00
1476;DHT22;730;48.870;12.542;2023-12-07T07:13:28;3.20;1.00
1476;DHT22;730;48.870;12.542;2023-12-07T07:15:54;3.20;1.00
1476;DHT22;730;48.870;12.542;2023-12-07T07:18:20;3.30;1.00
1476;DHT22;730;48.870;12.542;2023-12-07T07:20:49;3.30;1.00
1476;DHT22;730;48.870;12.542;2023-12-07T07:23:15;3.30;1.00
1476;DHT22;730;48.870;12.542;2023-12-07T07:25:41;3.30;1.00
1476;DHT22;730;48.870;12.542;2023-12-07T07:28:07;3.30;1.00
1476;DHT22;730;48.870;12.542;2023-12-07T07:30:34;3.30;1.00
1476;DHT22;730;48.870;12.542;2023-12-07T07:33:00;3.30;1.00
1476;DHT22;730;48.870;12.542;2023-12-07T07:35:27;3.40;1.00
1476;DHT22;730;48.870;12.542;2023-12-07T07:37:53;3.40;1.00
1476;DHT22;730;48.870;12.542;2023-12-07T07:40:19;3.40;1.00
1476;DHT22;730;48.870;12.542;2023-12-07T07:42:45;3.40;1.00
1476;DHT22;730;48.870;12.542;2023-12-07T07:45:11;3.40;1.00
1476;DHT22;730;48.870;12.542;2023-12-07T07:47:37;3.40;1.00
1476;DHT22;730;48.870;12.542;2023-12-07T07:50:05;3.40;1.00
1476;DHT22;730;48.870;12.542;2023-12-07T07:52:34;3.40;1.00
1476;DHT22;730;48.870;12.542;2023-12-07T07:55:03;3.40;1.00
1476;DHT22;730;48.870;12.542;2023-12-07T07:57:30;3.50;1.00
1476;DHT22;730;48.870;12.542;2023-12-07T07:59:57;3.50;1.00
1476;DHT22;730;48.870;12.542;2023-12-07T08:02:23;3.50;1.00
1476;DHT22;730;48.870;12.542;2023-12-07T08:04:50;3.50;1.00
1476;DHT22;730;48.870;12.542;2023-12-07T08:07:17;3.50;1.00
1476;DHT22;730;48.870;12.542;2023-12-07T08:09:43;3.50;1.00
1476;DHT22;730;48.870;12.542;2023-12-07T08:12:09;3.60;1.00
1476;DHT22;730;48.870;12.542;2023-12-07T08:14:36;3.60;1.00
1476;DHT22;730;48.870;12.542;2023-12-07T08:17:03;3.60;1.00
1476;DHT22;730;48.870;12.542;2023-12-07T08:19:29;3.70;1.00
1476;DHT22;730;48.870;12.542;2023-12-07T08:21:55;3.70;1.00
1476;DHT22;730;48.870;12.542;2023-12-07T08:24:21;3.70;1.00
1476;DHT22;730;48.870;12.542;2023-12-07T08:26:47;3.80;1.00
1476;DHT22;730;48.870;12.542;2023-12-07T08:29:13;3.80;1.00
1476;DHT22;730;48.870;12.542;2023-12-07T08:31:42;3.80;1.00
1476;DHT22;730;48.870;12.542;2023-12-07T08:34:08;3.90;1.00
1476;DHT22;730;48.870;12.542;2023-12-07T08:36:34;3.90;1.00
1476;DHT22;730;48.870;12.542;2023-12-07T08:39:00;4.00;1.00
1476;DHT22;730;48.870;12.542;2023-12-07T08:41:27;4.00;1.00
1476;DHT22;730;48.870;12.542;2023-12-07T08:43:54;4.10;1.00
1476;DHT22;730;48.870;12.542;2023-12-07T08:46:20;4.10;1.00
1476;DHT22;730;48.870;12.542;2023-12-07T08:48:46;4.20;1.00
1476;DHT22;730;48.870;12.542;2023-12-07T08:51:12;4.20;1.00
1476;DHT22;730;48.870;12.542;2023-12-07T08:53:38;4.30;1.00
1476;DHT22;730;48.870;12.542;2023-12-07T08:56:05;4.40;1.00
1476;DHT22;730;48.870;12.542;2023-12-07T08:58:31;4.40;1.00
1476;DHT22;730;48.870;12.542;2023-12-07T09:00:57;4.50;1.00
1476;DHT22;730;48.870;12.542;2023-12-07T09:03:23;4.50;1.00
1476;DHT22;730;48.870;12.542;2023-12-07T09:05:58;4.60;1.00
1476;DHT22;730;48.870;12.542;2023-12-07T09:08:24;4.70;1.00
1476;DHT22;730;48.870;12.542;2023-12-07T09:10:50;4.70;1.00
1476;DHT22;730;48.870;12.542;2023-12-07T09:13:17;4.80;1.00
1476;DHT22;730;48.870;12.542;2023-12-07T09:15:44;4.90;1.00
1476;DHT22;730;48.870;12.542;2023-12-07T09:18:10;4.90;1.00
1476;DHT22;730;48.870;12.542;2023-12-07T09:20:37;5.00;1.00
1476;DHT22;730;48.870;12.542;2023-12-07T09:23:09;5.00;1.00
1476;DHT22;730;48.870;12.542;2023-12-07T09:25:35;5.10;1.00
1476;DHT22;730;48.870;12.542;2023-12-07T09:28:01;5.10;1.00
1476;DHT22;730;48.870;12.542;2023-12-07T09:30:27;5.10;1.00
1476;DHT22;730;48.870;12.542;2023-12-07T09:32:53;5.10;1.00
1476;DHT22;730;48.870;12.542;2023-12-07T09:35:19;5.20;1.00
1476;DHT22;730;48.870;12.542;2023-12-07T09:37:46;5.20;1.00
1476;DHT22;730;48.870;12.542;2023-12-07T09:40:22;5.20;1.00
1476;DHT22;730;48.870;12.542;2023-12-07T09:42:49;5.20;1.00
1476;DHT22;730;48.870;12.542;2023-12-07T09:45:16;5.30;1.00
1476;DHT22;730;48.870;12.542;2023-12-07T09:47:48;5.30;1.00
1476;DHT22;730;48.870;12.542;2023-12-07T09:50:20;5.30;1.00
1476;DHT22;730;48.870;12.542;2023-12-07T09:52:50;5.40;1.00
1476;DHT22;730;48.870;12.542;2023-12-07T09:55:17;5.40;1.00
1476;DHT22;730;48.870;12.542;2023-12-07T09:57:43;5.50;1.00
1476;DHT22;730;48.870;12.542;2023-12-07T10:00:13;5.50;1.00
1476;DHT22;730;48.870;12.542;2023-12-07T10:02:41;5.50;1.00
1476;DHT22;730;48.870;12.542;2023-12-07T10:05:10;5.50;1.00
1476;DHT22;730;48.870;12.542;2023-12-07T10:07:39;5.50;1.00
1476;DHT22;730;48.870;12.542;2023-12-07T10:10:06;5.50;1.00
1476;DHT22;730;48.870;12.542;2023-12-07T10:12:34;5.50;1.00
1476;DHT22;730;48.870;12.542;2023-12-07T10:15:01;5.60;1.00
1476;DHT22;730;48.870;12.542;2023-12-07T10:17:45;5.60;1.00
1476;DHT22;730;48.870;12.542;2023-12-07T10:20:24;5.70;1.00
1476;DHT22;730;48.870;12.542;2023-12-07T10:25:32;5.90;1.00
1476;DHT22;730;48.870;12.542;2023-12-07T10:27:58;5.90;1.00
1476;DHT22;730;48.870;12.542;2023-12-07T10:30:27;6.00;1.00
1476;DHT22;730;48.870;12.542;2023-12-07T10:32:53;6.10;1.00
1476;DHT22;730;48.870;12.542;2023-12-07T10:35:19;6.10;1.00
1476;DHT22;730;48.870;12.542;2023-12-07T10:37:46;6.10;1.00
1476;DHT22;730;48.870;12.542;2023-12-07T10:40:12;6.20;1.00
1476;DHT22;730;48.870;12.542;2023-12-07T10:42:41;6.20;1.00
1476;DHT22;730;48.870;12.542;2023-12-07T10:45:07;6.20;1.00
1476;DHT22;730;48.870;12.542;2023-12-07T10:47:38;6.30;1.00
1476;DHT22;730;48.870;12.542;2023-12-07T10:50:09;6.20;1.00
1476;DHT22;730;48.870;12.542;2023-12-07T10:52:48;6.20;1.00
1476;DHT22;730;48.870;12.542;2023-12-07T10:55:20;6.30;1.00
1476;DHT22;730;48.870;12.542;2023-12-07T10:57:52;6.30;1.00
1476;DHT22;730;48.870;12.542;2023-12-07T11:00:19;6.30;1.00
1476;DHT22;730;48.870;12.542;2023-12-07T11:02:50;6.30;1.00
1476;DHT22;730;48.870;12.542;2023-12-07T11:05:18;6.30;1.00
1476;DHT22;730;48.870;12.542;2023-12-07T11:08:05;6.30;1.00
1476;DHT22;730;48.870;12.542;2023-12-07T11:13:16;6.40;1.00
1476;DHT22;730;48.870;12.542;2023-12-07T11:15:43;6.40;1.00
1476;DHT22;730;48.870;12.542;2023-12-07T11:18:11;6.50;1.00
1476;DHT22;730;48.870;12.542;2023-12-07T11:20:44;6.50;1.00
1476;DHT22;730;48.870;12.542;2023-12-07T11:23:17;6.50;1.00
1476;DHT22;730;48.870;12.542;2023-12-07T11:25:48;6.50;1.00
1476;DHT22;730;48.870;12.542;2023-12-07T11:28:15;6.40;1.00
1476;DHT22;730;48.870;12.542;2023-12-07T11:30:47;6.40;1.00
1476;DHT22;730;48.870;12.542;2023-12-07T11:33:15;6.40;1.00
1476;DHT22;730;48.870;12.542;2023-12-07T11:38:26;6.40;1.00
1476;DHT22;730;48.870;12.542;2023-12-07T11:40:56;6.30;1.00
1476;DHT22;730;48.870;12.542;2023-12-07T11:46:01;6.20;1.00
1476;DHT22;730;48.870;12.542;2023-12-07T11:48:28;6.20;1.00
1476;DHT22;730;48.870;12.542;2023-12-07T11:51:04;6.20;1.00
1476;DHT22;730;48.870;12.542;2023-12-07T11:53:35;6.20;1.00
1476;DHT22;730;48.870;12.542;2023-12-07T11:56:03;6.20;1.00
1476;DHT22;730;48.870;12.542;2023-12-07T11:58:31;6.10;1.00
1476;DHT22;730;48.870;12.542;2023-12-07T12:00:57;6.00;1.00
1476;DHT22;730;48.870;12.542;2023-12-07T12:03:25;5.90;1.00
1476;DHT22;730;48.870;12.542;2023-12-07T12:05:51;5.70;1.00
1476;DHT22;730;48.870;12.542;2023-12-07T12:08:18;5.70;1.00
1476;DHT22;730;48.870;12.542;2023-12-07T12:10:45;5.60;1.00
1476;DHT22;730;48.870;12.542;2023-12-07T12:13:12;5.50;1.00
1476;DHT22;730;48.870;12.542;2023-12-07T12:15:39;5.60;1.00
1476;DHT22;730;48.870;12.542;2023-12-07T12:18:06;5.60;1.00
1476;DHT22;730;48.870;12.542;2023-12-07T12:20:32;5.60;1.00
1476;DHT22;730;48.870;12.542;2023-12-07T12:22:58;5.60;1.00
1476;DHT22;730;48.870;12.542;2023-12-07T12:25:27;5.70;1.00
1476;DHT22;730;48.870;12.542;2023-12-07T12:28:02;5.60;1.00
1476;DHT22;730;48.870;12.542;2023-12-07T12:30:30;5.60;1.00
1476;DHT22;730;48.870;12.542;2023-12-07T12:32:56;5.60;1.00
1476;DHT22;730;48.870;12.542;2023-12-07T12:35:23;5.50;1.00
1476;DHT22;730;48.870;12.542;2023-12-07T12:37:49;5.50;1.00
1476;DHT22;730;48.870;12.542;2023-12-07T12:40:17;5.60;1.00
1476;DHT22;730;48.870;12.542;2023-12-07T12:42:48;5.70;1.00
1476;DHT22;730;48.870;12.542;2023-12-07T12:45:15;5.80;1.00
1476;DHT22;730;48.870;12.542;2023-12-07T12:47:42;5.80;1.00
1476;DHT22;730;48.870;12.542;2023-12-07T12:50:10;5.90;1.00
1476;DHT22;730;48.870;12.542;2023-12-07T12:52:36;6.00;1.00
1476;DHT22;730;48.870;12.542;2023-12-07T12:55:12;6.10;1.00
1476;DHT22;730;48.870;12.542;2023-12-07T12:57:38;6.30;1.00
1476;DHT22;730;48.870;12.542;2023-12-07T13:00:05;6.40;1.00
1476;DHT22;730;48.870;12.542;2023-12-07T13:02:33;6.70;1.00
1476;DHT22;730;48.870;12.542;2023-12-07T13:05:00;7.10;1.00
1476;DHT22;730;48.870;12.542;2023-12-07T13:07:26;7.50;1.00
1476;DHT22;730;48.870;12.542;2023-12-07T13:09:52;8.10;1.00
1476;DHT22;730;48.870;12.542;2023-12-07T13:12:18;8.70;1.00
1476;DHT22;730;48.870;12.542;2023-12-07T13:14:44;9.30;1.00
1476;DHT22;730;48.870;12.542;2023-12-07T13:17:10;9.90;1.00
1476;DHT22;730;48.870;12.542;2023-12-07T13:19:36;10.50;1.00
1476;DHT22;730;48.870;12.542;2023-12-07T13:22:07;11.20;1.00
1476;DHT22;730;48.870;12.542;2023-12-07T13:24:34;11.90;1.00
1476;DHT22;730;48.870;12.542;2023-12-07T13:27:00;12.70;1.00
1476;DHT22;730;48.870;12.542;2023-12-07T13:29:26;13.50;1.00
1476;DHT22;730;48.870;12.542;2023-12-07T13:32:01;14.40;1.00
1476;DHT22;730;48.870;12.542;2023-12-07T13:34:27;15.40;1.00
1476;DHT22;730;48.870;12.542;2023-12-07T13:36:53;16.30;1.00
1476;DHT22;730;48.870;12.542;2023-12-07T13:39:19;17.00;1.00
1476;DHT22;730;48.870;12.542;2023-12-07T13:41:46;17.70;1.00
1476;DHT22;730;48.870;12.542;2023-12-07T13:44:16;18.20;1.00
1476;DHT22;730;48.870;12.542;2023-12-07T13:46:43;18.70;1.00
1476;DHT22;730;48.870;12.542;2023-12-07T13:49:10;19.00;1.00
1476;DHT22;730;48.870;12.542;2023-12-07T13:51:40;19.30;1.00
1476;DHT22;730;48.870;12.542;2023-12-07T13:54:07;19.60;1.00
1476;DHT22;730;48.870;12.542;2023-12-07T13:56:34;19.70;1.00
1476;DHT22;730;48.870;12.542;2023-12-07T13:59:01;19.50;1.00
1476;DHT22;730;48.870;12.542;2023-12-07T14:01:28;18.90;1.00
1476;DHT22;730;48.870;12.542;2023-12-07T14:03:55;18.10;1.00
1476;DHT22;730;48.870;12.542;2023-12-07T14:06:22;17.20;1.00
1476;DHT22;730;48.870;12.542;2023-12-07T14:08:51;16.40;1.00
1476;DHT22;730;48.870;12.542;2023-12-07T14:11:18;16.10;1.00
1476;DHT22;730;48.870;12.542;2023-12-07T14:13:44;16.10;1.00
1476;DHT22;730;48.870;12.542;2023-12-07T14:16:14;16.30;1.00
1476;DHT22;730;48.870;12.542;2023-12-07T14:18:40;16.50;1.00
1476;DHT22;730;48.870;12.542;2023-12-07T14:21:08;16.50;1.00
1476;DHT22;730;48.870;12.542;2023-12-07T14:23:34;16.70;1.00
1476;DHT22;730;48.870;12.542;2023-12-07T14:26:00;16.70;1.00
1476;DHT22;730;48.870;12.542;2023-12-07T14:28:26;16.60;1.00
1476;DHT22;730;48.870;12.542;2023-12-07T14:30:54;16.40;1.00
1476;DHT22;730;48.870;12.542;2023-12-07T14:33:22;16.20;1.00
1476;DHT22;730;48.870;12.542;2023-12-07T14:35:49;15.80;1.00
1476;DHT22;730;48.870;12.542;2023-12-07T14:38:15;15.40;1.00
1476;DHT22;730;48.870;12.542;2023-12-07T14:40:41;14.80;1.00
1476;DHT22;730;48.870;12.542;2023-12-07T14:43:07;14.10;1.00
1476;DHT22;730;48.870;12.542;2023-12-07T14:45:33;13.30;1.00
1476;DHT22;730;48.870;12.542;2023-12-07T14:47:59;12.40;1.00
1476;DHT22;730;48.870;12.542;2023-12-07T14:50:25;11.40;1.00
1476;DHT22;730;48.870;12.542;2023-12-07T14:52:52;10.60;1.00
1476;DHT22;730;48.870;12.542;2023-12-07T14:55:18;9.80;1.00
1476;DHT22;730;48.870;12.542;2023-12-07T14:57:45;9.10;1.00
1476;DHT22;730;48.870;12.542;2023-12-07T15:00:11;8.40;1.00
1476;DHT22;730;48.870;12.542;2023-12-07T15:02:38;7.80;1.00
1476;DHT22;730;48.870;12.542;2023-12-07T15:05:04;7.30;1.00
1476;DHT22;730;48.870;12.542;2023-12-07T15:07:30;6.90;1.00
1476;DHT22;730;48.870;12.542;2023-12-07T15:09:56;6.40;1.00
1476;DHT22;730;48.870;12.542;2023-12-07T15:12:23;6.10;1.00
1476;DHT22;730;48.870;12.542;2023-12-07T15:14:51;5.80;1.00
1476;DHT22;730;48.870;12.542;2023-12-07T15:17:17;5.50;1.00
1476;DHT22;730;48.870;12.542;2023-12-07T15:19:49;5.20;1.00
1476;DHT22;730;48.870;12.542;2023-12-07T15:22:15;5.00;1.00
1476;DHT22;730;48.870;12.542;2023-12-07T15:24:41;4.70;1.00
1476;DHT22;730;48.870;12.542;2023-12-07T15:27:07;4.50;1.00
1476;DHT22;730;48.870;12.542;2023-12-07T15:29:33;4.30;1.00
1476;DHT22;730;48.870;12.542;2023-12-07T15:32:15;4.20;1.00
1476;DHT22;730;48.870;12.542;2023-12-07T15:34:41;4.00;1.00
1476;DHT22;730;48.870;12.542;2023-12-07T15:37:08;3.80;1.00
1476;DHT22;730;48.870;12.542;2023-12-07T15:39:42;3.60;1.00
1476;DHT22;730;48.870;12.542;2023-12-07T15:42:09;3.50;1.00
1476;DHT22;730;48.870;12.542;2023-12-07T15:44:35;3.40;1.00
1476;DHT22;730;48.870;12.542;2023-12-07T15:47:01;3.30;1.00
1476;DHT22;730;48.870;12.542;2023-12-07T15:49:27;3.20;1.00
1476;DHT22;730;48.870;12.542;2023-12-07T15:51:53;3.10;1.00
1476;DHT22;730;48.870;12.542;2023-12-07T15:54:19;3.00;1.00
1476;DHT22;730;48.870;12.542;2023-12-07T15:56:45;2.80;1.00
1476;DHT22;730;48.870;12.542;2023-12-07T15:59:11;2.70;1.00
1476;DHT22;730;48.870;12.542;2023-12-07T16:01:37;2.60;1.00
1476;DHT22;730;48.870;12.542;2023-12-07T16:04:04;2.60;1.00
1476;DHT22;730;48.870;12.542;2023-12-07T16:06:30;2.50;1.00
1476;DHT22;730;48.870;12.542;2023-12-07T16:08:56;2.50;1.00
1476;DHT22;730;48.870;12.542;2023-12-07T16:11:22;2.40;1.00
1476;DHT22;730;48.870;12.542;2023-12-07T16:13:48;2.30;1.00
1476;DHT22;730;48.870;12.542;2023-12-07T16:16:15;2.20;1.00
1476;DHT22;730;48.870;12.542;2023-12-07T16:18:41;2.20;1.00
1476;DHT22;730;48.870;12.542;2023-12-07T16:21:07;2.10;1.00
1476;DHT22;730;48.870;12.542;2023-12-07T16:23:33;2.10;1.00
1476;DHT22;730;48.870;12.542;2023-12-07T16:25:59;2.10;1.00
1476;DHT22;730;48.870;12.542;2023-12-07T16:28:27;2.10;1.00
1476;DHT22;730;48.870;12.542;2023-12-07T16:30:53;2.10;1.00
1476;DHT22;730;48.870;12.542;2023-12-07T16:33:19;2.00;1.00
1476;DHT22;730;48.870;12.542;2023-12-07T16:35:45;2.00;1.00
1476;DHT22;730;48.870;12.542;2023-12-07T16:38:11;1.90;1.00
1476;DHT22;730;48.870;12.542;2023-12-07T16:40:37;1.90;1.00
1476;DHT22;730;48.870;12.542;2023-12-07T16:43:03;1.90;1.00
1476;DHT22;730;48.870;12.542;2023-12-07T16:45:30;1.80;1.00